Leo, IN (46765)

2:39 PM EST on December 27, 2014 (GMT -0500)
Hardisty Road | Change Station
CLOSE
Current Station
Personal Weather Station
Location: Fort Wayne, IN
Elevation: 781 ft
Nearby Weather Stations

Elev 781 ft 41.19 °N, 85.05 °W | Updated 9 minutes ago

Overcast
Overcast
46.4 °F
Feels Like 46 °F
N
1.0
Wind Variable Wind from South
Gusts 18.0 mph

Today
High -- | Low -- °F
--% Chance of Precip.
Yesterday
High -- | Low -- °F
Precip. -- in
8:04 AM 5:17 PM
Waxing Crescent, 39% visible
Pressure 30.01 in
Visibility 7.0 miles
Clouds Overcast 500 ft
Windchill 46 °F
Dew Point 44 °F
Humidity 93%
Rainfall 0.04 in
Snow Depth Not available.
UV 1 out of 12
Pollen .10 out of 12
Air Quality Not available.
Flu Activity Not available.
METAR KGWB 271915Z AUTO 23007G16KT 7SM OVC005 07/06 A3001 RMK AO2

More Conditions Fewer Conditions

Pressure 30.01 in
Visibility 7.0 miles
Clouds Overcast 500 ft
Windchill 46 °F
Dew Point 44 °F
Humidity 93%
Rainfall 0.04 in
Snow Depth Not available.
UV 1 out of 12
Pollen .10 out of 12
Air Quality Not available.
Flu Activity Not available.
METAR KGWB 271915Z AUTO 23007G16KT 7SM OVC005 07/06 A3001 RMK AO2

More Conditions Fewer Conditions

10-Day Weather Forecast

Almanac

Astronomy

Dec. 27, 2014 Rise Set
Actual Time
Civil Twilight
Nautical Twilight
Astronomical Twilight
Moon
Length of Visible Light
Length of Day
Tomorrow will be .
, % of the Moon is Illuminated

Today's Extremes

State Highs State Lows

Community

WunderPhotos

Upload Photos

1,781,027 photos uploaded!

WunderBlogs® & News

Nearby

Air Quality

  Air Quality AQ Index Pollutant
Not available.

Snow Depth

Station Depth Elevation

Earthquake Activity

City Distance Mag. Time & Date
Minimum magnitude displayed is 2.5.

Coastal Water Temperatures

Place Temperature

Nearby Weather Stations